Time;durP1;ratioP1;P1;durP2;ratioP2;P2;SDS_P1;SDS_P2;PMS_P1;PMS_P2;Temp;Humidity;BMP_temperature;BMP_pressure;BME280_temperature;BME280_humidity;BME280_pressure;Samples;Min_cycle;Max_cycle;Signal;HPM_P1;HPM_P2
2022/11/06 00:00:55;;;;;;;7.13;6.53;;;8.30;94.80;;;;;;5063911;28;20188;-90
2022/11/06 00:03:20;;;;;;;7.17;6.47;;;8.10;95.60;;;;;;5063817;28;20233;-89
2022/11/06 00:08:36;;;;;;;7.17;6.53;;;8.20;97.00;;;;;;5062362;28;20222;-89
2022/11/06 00:11:12;;;;;;;7.17;6.57;;;8.20;96.80;;;;;;5067215;28;20208;-89
2022/11/06 00:13:39;;;;;;;7.70;6.97;;;8.30;96.60;;;;;;5067063;28;20194;-90
2022/11/06 00:16:12;;;;;;;7.73;7.03;;;8.30;96.10;;;;;;5066901;28;20265;-89
2022/11/06 00:18:40;;;;;;;7.33;6.53;;;8.30;95.20;;;;;;5065167;28;20240;-91
2022/11/06 00:21:15;;;;;;;7.00;6.30;;;8.20;95.50;;;;;;5049349;28;20253;-89
2022/11/06 00:23:41;;;;;;;6.37;5.87;;;8.10;96.00;;;;;;5063840;28;20190;-89
2022/11/06 00:26:09;;;;;;;7.37;6.67;;;8.20;96.00;;;;;;5059550;28;20216;-89
2022/11/06 00:28:35;;;;;;;7.37;6.67;;;8.20;96.10;;;;;;5047750;28;20195;-89
2022/11/06 00:31:06;;;;;;;7.40;6.70;;;8.30;96.70;;;;;;5043395;28;20215;-89
2022/11/06 00:33:32;;;;;;;8.03;6.80;;;8.30;96.60;;;;;;5054719;28;20594;-91
2022/11/06 00:35:58;;;;;;;6.77;6.17;;;8.30;96.80;;;;;;5056555;28;20256;-90
2022/11/06 00:38:24;;;;;;;8.13;6.33;;;8.30;97.00;;;;;;5088183;28;20199;-91
2022/11/06 00:40:49;;;;;;;7.57;6.83;;;8.30;95.70;;;;;;5093446;28;20226;-89
2022/11/06 00:43:15;;;;;;;6.87;6.37;;;8.30;95.70;;;;;;5061681;28;20215;-89
2022/11/06 00:45:41;;;;;;;6.93;6.23;;;8.30;95.70;;;;;;5076563;28;20247;-89
2022/11/06 00:48:06;;;;;;;9.17;8.07;;;8.20;95.00;;;;;;5045254;28;20219;-90
2022/11/06 00:50:32;;;;;;;8.13;7.43;;;8.10;94.70;;;;;;5049311;28;20215;-91
2022/11/06 00:52:58;;;;;;;7.63;6.93;;;8.00;96.80;;;;;;5062548;28;20207;-89
2022/11/06 00:55:24;;;;;;;7.13;6.43;;;8.00;97.30;;;;;;5059874;28;20219;-89
2022/11/06 00:57:49;;;;;;;7.10;6.50;;;8.10;97.40;;;;;;5062607;28;20187;-89
2022/11/06 01:00:17;;;;;;;7.37;6.70;;;8.20;97.70;;;;;;5042748;28;20183;-88
2022/11/06 01:02:44;;;;;;;7.73;7.03;;;8.10;97.20;;;;;;5051573;28;20206;-90
2022/11/06 01:05:10;;;;;;;7.30;6.60;;;8.00;96.10;;;;;;5062272;28;20208;-89
2022/11/06 01:07:36;;;;;;;7.93;7.13;;;7.90;97.30;;;;;;5060741;28;20229;-89
2022/11/06 01:10:02;;;;;;;8.37;7.57;;;7.80;97.30;;;;;;5063023;28;20191;-89
2022/11/06 01:12:31;;;;;;;7.30;6.43;;;7.60;97.90;;;;;;5062708;28;20187;-89
2022/11/06 01:14:56;;;;;;;7.13;6.43;;;7.50;99.40;;;;;;5042829;28;20199;-90
2022/11/06 01:17:22;;;;;;;6.77;6.17;;;7.50;99.90;;;;;;5061465;28;20555;-88
2022/11/06 01:19:48;;;;;;;6.50;5.77;;;7.50;99.00;;;;;;5041165;28;20173;-88
2022/11/06 01:22:14;;;;;;;6.00;5.50;;;7.30;98.70;;;;;;5061179;28;20210;-90
2022/11/06 01:24:39;;;;;;;6.87;6.27;;;7.10;99.70;;;;;;5063045;28;20246;-90
2022/11/06 01:27:05;;;;;;;6.17;5.57;;;7.30;99.90;;;;;;5058586;28;20203;-89
2022/11/06 01:29:31;;;;;;;6.37;5.77;;;7.30;99.90;;;;;;5060710;28;20190;-89
2022/11/06 01:31:56;;;;;;;5.93;5.37;;;7.40;99.90;;;;;;5060375;28;20180;-90
2022/11/06 01:34:22;;;;;;;6.67;5.40;;;7.60;99.90;;;;;;5058841;28;20187;-90
2022/11/06 01:36:47;;;;;;;6.43;5.50;;;7.70;99.30;;;;;;5042945;28;20187;-88
2022/11/06 01:39:14;;;;;;;5.63;5.23;;;7.70;98.60;;;;;;5061327;28;20554;-88
2022/11/06 01:41:46;;;;;;;6.20;5.67;;;7.80;98.20;;;;;;5040670;28;20183;-89
2022/11/06 01:44:30;;;;;;;6.80;6.13;;;7.70;96.40;;;;;;5059287;28;20207;-89
2022/11/06 01:46:56;;;;;;;6.17;5.53;;;7.70;96.10;;;;;;5058717;28;20504;-89
2022/11/06 01:49:22;;;;;;;5.77;5.30;;;7.70;97.40;;;;;;5058810;28;20177;-89
2022/11/06 01:51:59;;;;;;;7.67;5.50;;;7.70;96.80;;;;;;5059132;28;20199;-88
2022/11/06 01:54:27;;;;;;;5.40;5.00;;;7.70;97.20;;;;;;5041202;28;20219;-89
2022/11/06 01:56:56;;;;;;;5.60;5.10;;;7.70;97.30;;;;;;5060770;28;20263;-89
2022/11/06 01:59:25;;;;;;;5.47;4.97;;;7.70;96.50;;;;;;5056888;28;20214;-90
2022/11/06 02:01:51;;;;;;;5.77;5.17;;;7.70;96.10;;;;;;5059675;28;20189;-89
2022/11/06 02:04:37;;;;;;;5.50;5.00;;;7.60;96.30;;;;;;5037978;28;20180;-89
2022/11/06 02:07:04;;;;;;;5.73;5.13;;;7.60;96.80;;;;;;5057419;28;20200;-89
2022/11/06 02:09:32;;;;;;;5.67;4.93;;;7.50;97.40;;;;;;5042020;28;20695;-89
2022/11/06 02:12:35;;;;;;;5.43;5.00;;;7.50;97.80;;;;;;5044035;28;20181;-90
2022/11/06 02:15:38;;;;;;;5.63;5.13;;;7.50;97.20;;;;;;5049800;28;20224;-90
2022/11/06 02:18:25;;;;;;;5.87;5.23;;;7.50;98.20;;;;;;5058648;28;20168;-89
2022/11/06 02:21:28;;;;;;;5.70;5.10;;;7.50;98.40;;;;;;5057643;28;20188;-89
2022/11/06 02:24:06;;;;;;;6.10;5.00;;;7.50;95.60;;;;;;5064986;28;20179;-90
2022/11/06 02:26:57;;;;;;;5.23;4.77;;;7.50;96.10;;;;;;5040545;28;20203;-89
2022/11/06 02:29:35;;;;;;;5.90;5.40;;;7.40;94.90;;;;;;5060628;28;20180;-90
2022/11/06 02:32:06;;;;;;;5.60;5.10;;;7.40;94.00;;;;;;5061399;28;20353;-89
2022/11/06 02:34:35;;;;;;;5.50;4.87;;;7.30;96.10;;;;;;5057911;28;20698;-89
2022/11/06 02:37:06;;;;;;;5.47;4.97;;;7.30;95.70;;;;;;5040145;28;20233;-89
2022/11/06 02:39:35;;;;;;;6.13;5.63;;;7.30;95.80;;;;;;5057171;28;20184;-89
2022/11/06 02:42:04;;;;;;;5.43;5.00;;;7.30;94.40;;;;;;5038665;28;20205;-89
2022/11/06 02:44:33;;;;;;;5.87;5.20;;;7.30;94.10;;;;;;5049965;28;20317;-89
2022/11/06 02:47:03;;;;;;;5.33;4.87;;;7.20;94.80;;;;;;5058472;28;20614;-90
2022/11/06 02:49:32;;;;;;;5.70;4.90;;;7.00;92.70;;;;;;5061049;28;20262;-90
2022/11/06 02:52:03;;;;;;;5.70;5.20;;;7.10;95.30;;;;;;5060062;28;20230;-89
2022/11/06 02:54:34;;;;;;;5.93;5.30;;;7.00;94.60;;;;;;5058950;28;20275;-90
2022/11/06 02:57:06;;;;;;;5.50;5.00;;;6.80;95.20;;;;;;5058261;28;20192;-89
2022/11/06 03:00:03;;;;;;;5.40;4.90;;;6.90;96.70;;;;;;5058579;28;20179;-90
2022/11/06 03:02:36;;;;;;;8.50;5.27;;;6.90;96.20;;;;;;5060125;28;20183;-89
2022/11/06 03:05:09;;;;;;;5.70;5.10;;;6.90;93.80;;;;;;5037770;28;20682;-90
2022/11/06 03:07:48;;;;;;;5.37;4.87;;;6.80;95.30;;;;;;5056516;28;20225;-89
2022/11/06 03:10:14;;;;;;;5.93;5.33;;;6.80;96.30;;;;;;5057960;28;20237;-90
2022/11/06 03:12:57;;;;;;;6.60;5.57;;;6.80;96.50;;;;;;5064841;28;20190;-89
2022/11/06 03:15:42;;;;;;;5.50;5.00;;;6.90;97.10;;;;;;5054163;28;20195;-89
2022/11/06 03:18:15;;;;;;;5.33;4.87;;;6.90;97.30;;;;;;5045278;28;20183;-90
2022/11/06 03:21:05;;;;;;;4.90;4.50;;;6.90;94.50;;;;;;5049810;28;20235;-89
2022/11/06 03:23:40;;;;;;;5.10;4.53;;;6.80;93.60;;;;;;5062850;28;20180;-90
2022/11/06 03:26:18;;;;;;;5.37;4.97;;;6.70;94.50;;;;;;5065161;28;20214;-90
2022/11/06 03:28:52;;;;;;;5.13;4.63;;;6.60;93.90;;;;;;5064885;28;20222;-89
2022/11/06 03:31:24;;;;;;;5.67;5.17;;;6.70;95.50;;;;;;5063616;28;20250;-89
2022/11/06 03:33:54;;;;;;;5.40;5.00;;;6.50;93.60;;;;;;5069259;28;20206;-89
2022/11/06 03:36:29;;;;;;;5.33;4.70;;;6.50;96.30;;;;;;5068531;28;20276;-90
2022/11/06 03:39:00;;;;;;;5.13;4.73;;;6.60;96.80;;;;;;5090862;28;20171;-91
2022/11/06 03:41:41;;;;;;;4.83;4.33;;;6.70;97.40;;;;;;5086780;28;20202;-91
2022/11/06 03:44:12;;;;;;;9.30;5.03;;;6.80;96.80;;;;;;5080355;28;20659;-90
2022/11/06 03:46:45;;;;;;;5.03;4.63;;;6.70;95.70;;;;;;5065881;28;20289;-89
2022/11/06 03:49:17;;;;;;;5.10;4.70;;;6.60;96.50;;;;;;5066377;28;20190;-90
2022/11/06 03:52:11;;;;;;;5.07;4.60;;;6.60;96.40;;;;;;5067782;22;20292;-87
2022/11/06 03:54:48;;;;;;;6.60;4.90;;;6.60;94.20;;;;;;5049226;28;20191;-89
2022/11/06 03:57:32;;;;;;;5.20;4.70;;;6.30;92.30;;;;;;5046182;28;20188;-88
2022/11/06 04:00:02;;;;;;;5.50;4.70;;;6.10;94.20;;;;;;5046293;28;20191;-88
2022/11/06 04:02:30;;;;;;;5.33;4.83;;;6.10;95.20;;;;;;5051367;28;20666;-87
2022/11/06 04:05:00;;;;;;;5.03;4.57;;;6.00;94.90;;;;;;5052635;28;20651;-89
2022/11/06 04:07:32;;;;;;;5.00;4.50;;;6.00;97.90;;;;;;5044198;28;20216;-90
2022/11/06 04:15:39;;;;;;;4.53;4.13;;;6.20;95.90;;;;;;5056197;28;20187;-88
2022/11/06 04:18:12;;;;;;;6.63;4.63;;;6.20;96.90;;;;;;5057068;28;20238;-87
2022/11/06 04:26:56;;;;;;;5.23;4.73;;;6.30;95.90;;;;;;5050366;28;20279;-88
2022/11/06 04:29:43;;;;;;;4.53;4.13;;;6.30;95.30;;;;;;5053534;28;20266;-87
2022/11/06 04:32:35;;;;;;;5.50;4.60;;;6.30;95.00;;;;;;5042263;28;20230;-87
2022/11/06 04:35:04;;;;;;;5.27;4.87;;;6.30;92.70;;;;;;5045770;28;20191;-89
2022/11/06 04:38:17;;;;;;;4.60;4.20;;;6.30;93.70;;;;;;5039080;28;20184;-87
2022/11/06 04:40:51;;;;;;;4.53;4.13;;;6.30;92.40;;;;;;5047679;28;20689;-87
2022/11/06 04:43:25;;;;;;;4.47;4.07;;;6.30;94.40;;;;;;5058579;28;20220;-88
2022/11/06 04:45:54;;;;;;;4.97;4.47;;;6.30;93.70;;;;;;5052952;28;20223;-87
2022/11/06 04:48:22;;;;;;;4.97;4.57;;;6.30;92.60;;;;;;5045365;28;20193;-88
2022/11/06 04:50:54;;;;;;;5.70;4.50;;;6.20;92.00;;;;;;5042206;28;20211;-87
2022/11/06 04:53:21;;;;;;;5.43;4.97;;;6.10;93.40;;;;;;5049666;28;20550;-87
2022/11/06 04:55:51;;;;;;;5.73;5.23;;;6.20;94.60;;;;;;5045385;28;20177;-87
2022/11/06 04:58:17;;;;;;;5.70;5.20;;;6.20;98.20;;;;;;5051680;28;20207;-87
2022/11/06 05:00:46;;;;;;;6.00;5.50;;;6.30;99.60;;;;;;5057674;28;20409;-86
2022/11/06 05:03:12;;;;;;;8.67;6.37;;;6.30;99.90;;;;;;5039657;28;20200;-87
2022/11/06 05:05:38;;;;;;;6.67;6.17;;;6.40;99.90;;;;;;5027638;28;20209;-86
2022/11/06 05:08:04;;;;;;;6.43;5.83;;;6.50;99.90;;;;;;5049049;28;20207;-86
2022/11/06 05:10:29;;;;;;;7.07;6.43;;;6.60;99.90;;;;;;5051702;28;20260;-88
2022/11/06 05:12:55;;;;;;;6.97;6.47;;;6.70;99.90;;;;;;5056835;28;20220;-89
2022/11/06 05:15:20;;;;;;;8.93;7.60;;;6.60;99.90;;;;;;5050523;28;20183;-86
2022/11/06 05:17:46;;;;;;;7.30;6.70;;;6.60;99.90;;;;;;5060795;28;20180;-87
2022/11/06 05:20:12;;;;;;;7.47;6.77;;;6.50;99.90;;;;;;5030235;28;20188;-87
2022/11/06 05:22:57;;;;;;;7.40;6.80;;;6.50;99.90;;;;;;5048393;28;20215;-88
2022/11/06 05:25:27;;;;;;;8.20;7.40;;;6.60;99.90;;;;;;5052894;28;20177;-87
2022/11/06 05:27:52;;;;;;;9.70;7.10;;;6.60;99.90;;;;;;5058329;28;20713;-87
2022/11/06 05:30:18;;;;;;;8.83;7.77;;;6.60;99.90;;;;;;5046163;28;20184;-88
2022/11/06 05:32:44;;;;;;;9.57;7.73;;;6.60;99.90;;;;;;5053147;28;20207;-88
2022/11/06 05:35:10;;;;;;;10.80;7.07;;;6.50;99.90;;;;;;5051497;28;20181;-87
2022/11/06 05:37:35;;;;;;;7.43;6.70;;;6.40;99.90;;;;;;5053462;28;20184;-85
2022/11/06 05:40:01;;;;;;;8.30;7.60;;;6.20;99.90;;;;;;5039299;28;20610;-87
2022/11/06 05:42:27;;;;;;;7.90;7.20;;;6.40;99.90;;;;;;5056426;28;20213;-88
2022/11/06 05:44:52;;;;;;;8.27;6.77;;;6.40;99.90;;;;;;5055429;28;20636;-87
2022/11/06 05:47:18;;;;;;;7.47;6.87;;;6.30;99.90;;;;;;5053756;28;20210;-86
2022/11/06 05:49:44;;;;;;;7.87;7.27;;;6.40;99.90;;;;;;5037211;28;20195;-86
2022/11/06 05:52:09;;;;;;;12.97;8.20;;;6.40;99.90;;;;;;5046250;28;20235;-88
2022/11/06 05:54:35;;;;;;;13.70;7.17;;;6.40;99.90;;;;;;5027994;28;20188;-87
2022/11/06 05:57:00;;;;;;;8.57;7.23;;;6.20;99.90;;;;;;5059669;28;20215;-87
2022/11/06 05:59:26;;;;;;;9.30;8.40;;;6.20;99.90;;;;;;5048528;28;20195;-88
2022/11/06 06:01:52;;;;;;;8.30;7.07;;;6.30;99.90;;;;;;5052215;28;20291;-86
2022/11/06 06:04:17;;;;;;;9.53;6.93;;;6.40;99.90;;;;;;5053672;28;20195;-88
2022/11/06 06:06:43;;;;;;;8.23;7.53;;;6.40;99.90;;;;;;5061163;28;20215;-87
2022/11/06 06:09:09;;;;;;;10.47;9.33;;;6.40;99.90;;;;;;5057054;28;20675;-87
2022/11/06 06:11:34;;;;;;;7.47;6.77;;;6.40;99.90;;;;;;5048848;28;20219;-89
2022/11/06 06:14:00;;;;;;;7.63;6.93;;;6.50;99.90;;;;;;5044144;28;20185;-87
2022/11/06 06:16:26;;;;;;;6.93;6.10;;;6.50;99.90;;;;;;5030932;28;20212;-87
2022/11/06 06:18:52;;;;;;;6.63;6.03;;;6.60;99.90;;;;;;5059889;28;20199;-88
2022/11/06 06:21:18;;;;;;;7.60;6.90;;;6.50;99.90;;;;;;5037067;28;20197;-89
2022/11/06 06:23:43;;;;;;;7.10;6.40;;;6.50;99.90;;;;;;5039013;28;20231;-87
2022/11/06 06:26:09;;;;;;;9.87;6.77;;;6.30;99.90;;;;;;5045688;28;20208;-90
2022/11/06 06:28:35;;;;;;;5.80;5.30;;;6.30;99.90;;;;;;5054508;28;20181;-88
2022/11/06 06:31:05;;;;;;;6.73;6.20;;;6.20;99.90;;;;;;5059986;28;20176;-86
2022/11/06 06:33:31;;;;;;;7.13;5.83;;;6.10;99.90;;;;;;5043400;28;20315;-88
2022/11/06 06:35:56;;;;;;;6.30;5.80;;;6.10;99.90;;;;;;5062418;28;20192;-87
2022/11/06 06:38:22;;;;;;;6.87;6.27;;;6.10;99.90;;;;;;5050172;28;20204;-86
2022/11/06 06:40:48;;;;;;;8.20;7.43;;;6.20;99.90;;;;;;5046098;28;20181;-87
2022/11/06 06:43:14;;;;;;;7.77;6.90;;;6.20;99.90;;;;;;5062760;28;20216;-89
2022/11/06 06:45:40;;;;;;;8.53;7.73;;;6.20;99.90;;;;;;5066840;28;20287;-94
2022/11/06 06:48:06;;;;;;;7.17;6.57;;;6.30;99.90;;;;;;5116361;22;20601;-87
2022/11/06 06:50:31;;;;;;;7.10;6.40;;;6.40;99.90;;;;;;5019257;28;20192;-88
2022/11/06 06:52:58;;;;;;;7.30;6.57;;;6.40;99.90;;;;;;5020258;28;20177;-88
2022/11/06 06:55:24;;;;;;;8.50;7.80;;;6.50;99.70;;;;;;5016819;28;20205;-88
2022/11/06 06:57:59;;;;;;;8.00;7.30;;;6.40;99.90;;;;;;4999017;28;20180;-87
2022/11/06 07:00:25;;;;;;;6.97;6.37;;;6.50;99.50;;;;;;5018990;28;20263;-87
2022/11/06 07:02:51;;;;;;;7.33;6.63;;;6.30;98.80;;;;;;5018619;28;20196;-88
2022/11/06 07:05:17;;;;;;;8.37;6.30;;;6.00;98.10;;;;;;5021445;28;20200;-85
2022/11/06 07:07:43;;;;;;;6.97;6.30;;;5.80;99.90;;;;;;5016996;28;20262;-84
2022/11/06 07:10:08;;;;;;;6.70;6.20;;;5.70;99.90;;;;;;4999284;28;20193;-86
2022/11/06 07:12:34;;;;;;;7.13;6.53;;;5.50;99.90;;;;;;5000596;28;20223;-85
2022/11/06 07:14:59;;;;;;;9.63;8.83;;;5.50;99.90;;;;;;5024047;28;20209;-84
2022/11/06 07:17:26;;;;;;;9.47;8.60;;;5.70;99.90;;;;;;5044342;28;20296;-84
2022/11/06 07:19:52;;;;;;;10.53;9.73;;;5.80;99.90;;;;;;5027398;28;20291;-85
2022/11/06 07:22:18;;;;;;;11.87;10.93;;;5.90;99.90;;;;;;5027610;28;20193;-85
2022/11/06 07:24:43;;;;;;;11.23;10.23;;;5.90;99.90;;;;;;5021087;28;20669;-83
2022/11/06 07:27:09;;;;;;;10.07;9.23;;;5.90;99.90;;;;;;5019138;28;21061;-85
2022/11/06 07:29:35;;;;;;;13.03;11.70;;;5.90;99.90;;;;;;5017920;28;20188;-85
2022/11/06 07:32:00;;;;;;;12.77;11.63;;;5.90;99.90;;;;;;5002535;28;20197;-85
2022/11/06 07:34:26;;;;;;;7.70;7.00;;;5.70;99.90;;;;;;5017584;28;20193;-85
2022/11/06 07:36:52;;;;;;;7.37;6.67;;;5.70;99.90;;;;;;5018545;28;20191;-86
2022/11/06 07:39:17;;;;;;;6.47;5.87;;;5.70;99.90;;;;;;5016186;28;20262;-86
2022/11/06 07:41:43;;;;;;;6.20;5.30;;;5.70;99.90;;;;;;5023835;28;20189;-85
2022/11/06 07:44:09;;;;;;;6.93;6.20;;;5.70;99.90;;;;;;5014046;28;20757;-86
2022/11/06 07:46:34;;;;;;;7.83;7.13;;;5.70;99.90;;;;;;5024636;28;20201;-86
2022/11/06 07:49:00;;;;;;;6.47;5.87;;;5.90;99.90;;;;;;5008708;28;20200;-87
2022/11/06 07:51:26;;;;;;;6.20;5.70;;;6.00;99.90;;;;;;5008917;28;20181;-86
2022/11/06 07:53:52;;;;;;;6.50;5.90;;;6.10;99.90;;;;;;5028950;28;20189;-85
2022/11/06 07:56:17;;;;;;;7.63;6.63;;;6.30;99.90;;;;;;5019178;28;20214;-84
2022/11/06 07:58:43;;;;;;;6.90;6.20;;;6.30;99.90;;;;;;5022255;28;20189;-84
2022/11/06 08:01:14;;;;;;;6.17;5.67;;;6.40;99.90;;;;;;5027362;28;20606;-85
2022/11/06 08:03:40;;;;;;;6.63;6.03;;;6.50;99.90;;;;;;5032804;28;20203;-86
2022/11/06 08:06:06;;;;;;;6.93;6.27;;;6.50;99.90;;;;;;5030257;28;20299;-85
2022/11/06 08:08:32;;;;;;;7.20;6.50;;;6.50;99.90;;;;;;5012747;28;20184;-84
2022/11/06 08:11:05;;;;;;;7.30;6.70;;;6.60;99.90;;;;;;5011697;28;20185;-84
2022/11/06 08:13:33;;;;;;;8.43;7.57;;;6.60;99.90;;;;;;5009333;28;20228;-85
2022/11/06 08:16:09;;;;;;;7.90;7.20;;;6.50;99.90;;;;;;5004646;28;20213;-85
2022/11/06 08:18:35;;;;;;;9.20;8.30;;;6.50;99.90;;;;;;5006566;28;20212;-84
2022/11/06 08:21:02;;;;;;;8.43;7.73;;;6.40;99.90;;;;;;5021154;28;20201;-86
2022/11/06 08:23:28;;;;;;;8.23;7.53;;;6.40;99.90;;;;;;5023819;28;20224;-84
2022/11/06 08:25:55;;;;;;;8.30;7.40;;;6.40;99.90;;;;;;5021421;28;20857;-84
2022/11/06 08:28:20;;;;;;;8.50;7.70;;;6.40;99.90;;;;;;5021144;28;20240;-83
2022/11/06 08:30:46;;;;;;;7.70;7.07;;;6.30;99.90;;;;;;5019870;28;20221;-84
2022/11/06 08:33:12;;;;;;;7.93;7.23;;;6.40;99.90;;;;;;5010659;28;20197;-86
2022/11/06 08:35:37;;;;;;;7.60;6.90;;;6.50;99.90;;;;;;5011284;28;21027;-86
2022/11/06 08:38:03;;;;;;;7.63;6.90;;;6.50;99.90;;;;;;5015062;28;20204;-85
2022/11/06 08:40:29;;;;;;;7.80;7.20;;;6.50;99.90;;;;;;5008228;28;20283;-85
2022/11/06 08:43:03;;;;;;;8.07;7.37;;;6.50;99.90;;;;;;5010384;28;20196;-84
2022/11/06 08:45:29;;;;;;;8.73;7.57;;;6.50;99.90;;;;;;5016923;28;20208;-85
2022/11/06 08:47:59;;;;;;;8.00;7.30;;;6.30;99.90;;;;;;5015526;28;20339;-85
2022/11/06 08:50:24;;;;;;;8.53;7.83;;;6.10;99.90;;;;;;5014168;28;20181;-84
2022/11/06 08:52:50;;;;;;;8.97;8.20;;;5.90;99.90;;;;;;5018631;28;20786;-86
2022/11/06 08:55:16;;;;;;;9.27;8.40;;;5.80;99.90;;;;;;5015766;28;20197;-85
2022/11/06 08:57:41;;;;;;;8.50;7.70;;;6.00;99.90;;;;;;5012895;28;20197;-84
2022/11/06 09:00:08;;;;;;;9.60;8.70;;;6.10;99.90;;;;;;5001705;28;20196;-84
2022/11/06 09:02:33;;;;;;;8.57;7.77;;;6.30;99.90;;;;;;5019083;28;20696;-84
2022/11/06 09:04:59;;;;;;;8.70;7.90;;;6.40;99.90;;;;;;4999198;28;20312;-83
2022/11/06 09:07:24;;;;;;;9.03;8.33;;;6.60;99.90;;;;;;5000806;28;20294;-84
2022/11/06 09:09:50;;;;;;;9.00;8.13;;;6.80;99.90;;;;;;5000627;28;20185;-84
2022/11/06 09:12:15;;;;;;;8.37;7.57;;;7.00;99.90;;;;;;5014966;28;20607;-84
2022/11/06 09:14:41;;;;;;;8.40;7.60;;;7.20;99.90;;;;;;5017398;28;20224;-85
2022/11/06 09:17:07;;;;;;;9.13;8.33;;;7.20;99.90;;;;;;5014132;28;20835;-85
2022/11/06 09:19:32;;;;;;;8.70;8.00;;;7.20;99.90;;;;;;5012254;28;20243;-85
2022/11/06 09:21:58;;;;;;;8.27;7.47;;;7.30;99.90;;;;;;4998142;28;20197;-84
2022/11/06 09:24:24;;;;;;;9.13;8.30;;;7.30;99.90;;;;;;4999010;28;20189;-87
2022/11/06 09:26:49;;;;;;;9.60;7.90;;;7.30;99.90;;;;;;5006366;28;21410;-84
2022/11/06 09:29:15;;;;;;;8.80;8.00;;;7.40;99.90;;;;;;4997261;28;20221;-84
2022/11/06 09:31:42;;;;;;;8.13;7.40;;;7.30;99.90;;;;;;4997132;28;20189;-85
2022/11/06 09:34:08;;;;;;;9.67;8.77;;;7.50;99.90;;;;;;5009258;28;20185;-84
2022/11/06 09:36:35;;;;;;;7.83;7.13;;;7.50;99.90;;;;;;5010380;28;20207;-83
2022/11/06 09:39:01;;;;;;;7.53;6.93;;;7.70;99.90;;;;;;5014706;28;20347;-82
2022/11/06 09:41:43;;;;;;;8.00;7.20;;;8.10;99.90;;;;;;5011678;28;20716;-84
2022/11/06 09:44:30;;;;;;;8.17;7.37;;;8.10;99.90;;;;;;5012521;28;21827;-82
2022/11/06 09:46:58;;;;;;;7.17;6.50;;;7.90;99.90;;;;;;4996610;28;20259;-82
2022/11/06 09:49:38;;;;;;;9.53;7.07;;;8.10;99.90;;;;;;5026641;28;20201;-81
2022/11/06 09:52:12;;;;;;;7.53;6.73;;;8.40;99.90;;;;;;5095507;22;20468;-85
2022/11/06 09:54:47;;;;;;;7.17;6.57;;;8.80;97.30;;;;;;5038266;28;20180;-88
2022/11/06 09:57:33;;;;;;;7.77;7.07;;;8.90;95.30;;;;;;5051977;28;20313;-89
2022/11/06 10:00:01;;;;;;;7.70;7.00;;;9.10;96.50;;;;;;5052397;28;20192;-87
2022/11/06 10:03:01;;;;;;;6.97;6.37;;;9.30;96.80;;;;;;5037189;28;20187;-89
2022/11/06 10:05:36;;;;;;;7.10;6.50;;;9.30;95.50;;;;;;5056857;28;20235;-89
2022/11/06 10:08:06;;;;;;;7.10;6.33;;;9.50;96.40;;;;;;5052633;28;20229;-88
2022/11/06 10:10:42;;;;;;;6.93;6.33;;;9.60;94.60;;;;;;5036096;28;20199;-89
2022/11/06 10:13:45;;;;;;;6.53;5.90;;;9.80;93.70;;;;;;5035550;28;20199;-90
2022/11/06 10:16:14;;;;;;;6.93;6.23;;;9.80;92.90;;;;;;5032261;28;20188;-89
2022/11/06 10:18:39;;;;;;;6.57;5.93;;;9.70;93.10;;;;;;5055274;28;20751;-90
2022/11/06 10:21:20;;;;;;;6.60;6.00;;;9.70;92.90;;;;;;5054879;28;20239;-87
2022/11/06 10:23:56;;;;;;;6.77;6.10;;;9.80;92.40;;;;;;5053400;28;20182;-89
2022/11/06 10:26:35;;;;;;;7.97;7.27;;;9.80;92.00;;;;;;5051083;28;20244;-89
2022/11/06 10:29:20;;;;;;;7.27;6.57;;;9.90;93.30;;;;;;5051203;28;20286;-88
2022/11/06 10:32:07;;;;;;;7.73;7.00;;;10.00;91.60;;;;;;5036954;28;20211;-89
2022/11/06 10:34:41;;;;;;;7.60;7.00;;;10.20;90.50;;;;;;5036817;28;20186;-88
2022/11/06 10:37:17;;;;;;;7.77;7.13;;;10.30;89.20;;;;;;5053566;28;20219;-90
2022/11/06 10:39:45;;;;;;;6.73;6.23;;;10.20;87.00;;;;;;5054212;28;20204;-90
2022/11/06 10:42:41;;;;;;;7.73;6.77;;;10.10;88.80;;;;;;5054462;28;20224;-88
2022/11/06 10:45:15;;;;;;;5.63;5.13;;;10.20;87.80;;;;;;5047142;28;20225;-90
2022/11/06 10:47:43;;;;;;;6.53;5.40;;;10.50;84.60;;;;;;5048770;28;20272;-89
2022/11/06 10:50:15;;;;;;;5.77;5.27;;;10.70;82.20;;;;;;5034683;28;20189;-88
2022/11/06 10:53:03;;;;;;;5.63;5.00;;;10.90;80.90;;;;;;5049114;28;20299;-89
2022/11/06 10:55:40;;;;;;;5.50;5.00;;;11.10;80.10;;;;;;5050723;28;20228;-90
2022/11/06 10:58:13;;;;;;;5.37;4.90;;;11.20;79.40;;;;;;5048965;28;20747;-90
2022/11/06 11:00:39;;;;;;;5.50;5.00;;;11.50;78.40;;;;;;5053287;28;20198;-89
2022/11/06 11:03:15;;;;;;;5.07;4.67;;;11.60;77.00;;;;;;5035737;28;20191;-90
2022/11/06 11:05:43;;;;;;;5.03;4.63;;;11.70;75.20;;;;;;5033767;28;20279;-90
2022/11/06 11:08:27;;;;;;;4.83;4.53;;;11.90;75.10;;;;;;5035909;28;20223;-89
2022/11/06 11:11:13;;;;;;;5.90;5.30;;;12.00;72.40;;;;;;5053067;28;20191;-89
2022/11/06 11:13:48;;;;;;;5.30;4.80;;;11.90;73.70;;;;;;5055052;28;20195;-89
2022/11/06 11:16:23;;;;;;;4.30;4.00;;;12.10;73.40;;;;;;5054202;28;20199;-89
2022/11/06 11:18:50;;;;;;;4.93;4.43;;;12.40;70.60;;;;;;5053241;28;20222;-90
2022/11/06 11:21:21;;;;;;;4.17;3.77;;;12.40;69.70;;;;;;5054090;28;20218;-90
2022/11/06 11:23:59;;;;;;;4.83;4.43;;;12.10;69.60;;;;;;5052862;28;20192;-89
2022/11/06 11:26:28;;;;;;;4.70;4.30;;;12.10;70.30;;;;;;5036716;28;20219;-88
2022/11/06 11:28:58;;;;;;;5.53;4.30;;;12.10;70.10;;;;;;5054294;28;20242;-89
2022/11/06 11:31:34;;;;;;;5.10;4.60;;;12.30;69.60;;;;;;5055267;28;20204;-89
2022/11/06 11:34:03;;;;;;;5.00;4.60;;;12.60;69.40;;;;;;5041530;28;20268;-89
2022/11/06 11:36:50;;;;;;;4.70;4.30;;;13.00;69.20;;;;;;5055377;28;20202;-90
2022/11/06 11:39:18;;;;;;;5.43;5.03;;;13.20;66.90;;;;;;5058797;28;20224;-90
2022/11/06 11:41:44;;;;;;;5.47;3.97;;;13.40;66.40;;;;;;5041104;28;20220;-89
2022/11/06 11:44:17;;;;;;;5.03;4.00;;;13.40;65.30;;;;;;5040933;28;20377;-89
2022/11/06 11:46:51;;;;;;;4.77;4.33;;;13.30;65.80;;;;;;5058449;28;20236;-89
2022/11/06 11:49:33;;;;;;;4.47;3.87;;;13.00;67.30;;;;;;5056528;28;20321;-88
2022/11/06 11:52:10;;;;;;;5.33;4.17;;;12.80;65.30;;;;;;5056402;28;20197;-88
2022/11/06 11:54:36;;;;;;;5.07;3.70;;;12.60;69.00;;;;;;5059834;28;20194;-89
2022/11/06 11:57:04;;;;;;;6.70;4.20;;;12.50;69.50;;;;;;5054545;28;20194;-90
2022/11/06 11:59:32;;;;;;;4.07;3.77;;;12.30;70.50;;;;;;5055445;28;20210;-89
2022/11/06 12:02:11;;;;;;;4.93;4.17;;;12.30;70.10;;;;;;5058811;28;20730;-89
2022/11/06 12:04:43;;;;;;;4.97;4.40;;;12.20;70.80;;;;;;5057717;28;20224;-89
2022/11/06 12:07:43;;;;;;;4.30;4.00;;;12.30;70.80;;;;;;5056159;28;20287;-89
2022/11/06 12:10:42;;;;;;;4.57;4.20;;;12.10;71.10;;;;;;4986422;28;20208;-90
2022/11/06 12:13:18;;;;;;;6.53;5.93;;;12.00;73.10;;;;;;5044009;28;20207;-88
2022/11/06 12:16:02;;;;;;;14.63;13.23;;;12.00;73.50;;;;;;5051729;28;20201;-89
2022/11/06 12:18:34;;;;;;;6.40;4.70;;;12.10;73.60;;;;;;5059337;28;20237;-88
2022/11/06 12:21:05;;;;;;;5.00;3.90;;;12.00;73.00;;;;;;5061595;28;20736;-89
2022/11/06 12:23:39;;;;;;;4.70;4.30;;;12.00;74.60;;;;;;5052473;28;20208;-90
2022/11/06 12:26:27;;;;;;;4.63;4.23;;;11.90;73.60;;;;;;5055024;28;20767;-89
2022/11/06 12:29:03;;;;;;;4.77;4.37;;;11.80;74.50;;;;;;5055551;28;20211;-90
2022/11/06 12:31:41;;;;;;;5.13;4.73;;;11.90;74.60;;;;;;5054104;28;20781;-89
2022/11/06 12:34:13;;;;;;;6.97;6.37;;;11.90;79.60;;;;;;5056674;28;20182;-90
2022/11/06 12:36:45;;;;;;;9.67;8.97;;;11.80;81.60;;;;;;5049154;28;20280;-88
2022/11/06 12:39:22;;;;;;;10.93;10.03;;;11.80;79.90;;;;;;5053456;28;20255;-89
2022/11/06 12:41:50;;;;;;;7.27;6.77;;;11.90;79.20;;;;;;5052605;28;20234;-89
2022/11/06 12:44:16;;;;;;;6.50;5.90;;;11.90;79.30;;;;;;5051323;28;20259;-90
2022/11/06 12:46:47;;;;;;;5.37;4.73;;;11.70;81.10;;;;;;5058286;28;20736;-89
2022/11/06 12:49:35;;;;;;;5.87;4.87;;;11.50;81.00;;;;;;5059076;28;20208;-90
2022/11/06 12:52:45;;;;;;;4.80;4.50;;;11.60;82.00;;;;;;5057846;28;20209;-89
2022/11/06 12:55:28;;;;;;;5.10;4.50;;;11.70;81.50;;;;;;5060998;28;20219;-88
2022/11/06 12:58:05;;;;;;;7.67;7.00;;;11.50;83.70;;;;;;5055351;28;20212;-89
2022/11/06 13:00:59;;;;;;;5.80;5.30;;;11.70;81.90;;;;;;5054687;28;20198;-88
2022/11/06 13:03:42;;;;;;;38.37;35.10;;;11.80;82.50;;;;;;5055955;28;20193;-87
2022/11/06 13:06:23;;;;;;;39.40;34.17;;;11.80;82.90;;;;;;5053200;28;20347;-86
2022/11/06 13:09:09;;;;;;;18.90;12.00;;;12.00;86.40;;;;;;5057332;28;20274;-88
2022/11/06 13:11:35;;;;;;;5.83;4.87;;;12.10;81.30;;;;;;5056939;28;20176;-90
2022/11/06 13:14:06;;;;;;;22.47;20.50;;;12.00;82.30;;;;;;5057566;28;20187;-90
2022/11/06 13:17:01;;;;;;;6.27;5.77;;;12.00;81.90;;;;;;5054868;28;20690;-89
2022/11/06 13:19:36;;;;;;;6.03;5.43;;;12.00;82.50;;;;;;5054493;28;20286;-90
2022/11/06 13:22:24;;;;;;;6.27;5.77;;;11.90;83.80;;;;;;5035242;28;20765;-90
2022/11/06 13:25:17;;;;;;;7.10;5.90;;;11.90;84.20;;;;;;5053663;28;20195;-90
2022/11/06 13:27:47;;;;;;;7.17;6.47;;;11.80;85.70;;;;;;5037242;28;20623;-90
2022/11/06 13:30:21;;;;;;;8.33;7.50;;;11.70;87.00;;;;;;5056662;28;20185;-90